This is the latest recevied weather packets stored in our database for station/object GJ7DNI-13. If no packets are shown the sender has not sent any weather packets the latest 1 day(s).
| Time | Temp. | Humidity | Pressure | Rain* | Wind** | Luminosity | Snow |
|---|---|---|---|---|---|---|---|
| 1778062494 | 13.33° C | 75% | 1011.5 hPa | 0 mm | - | 121 W/m² | - |
| 1778062194 | 13.33° C | 75% | 1011.4 hPa | 0 mm | - | 128 W/m² | - |
| 1778061894 | 13.33° C | 75% | 1011.4 hPa | 0 mm | - | 137 W/m² | - |
| 1778061294 | 12.78° C | 75% | 1011.4 hPa | 0 mm | - | 109 W/m² | - |
| 1778060994 | 12.78° C | 75% | 1011.3 hPa | 0 mm | - | 109 W/m² | - |
| 1778060694 | 12.78° C | 75% | 1011.3 hPa | 0 mm | - | 113 W/m² | - |
| 1778060394 | 12.78° C | 75% | 1011.3 hPa | 0 mm | - | 102 W/m² | - |
| 1778060094 | 12.78° C | 75% | 1011.3 hPa | 0 mm | - | 86 W/m² | - |
| 1778059794 | 12.78° C | 75% | 1011.2 hPa | 0 mm | - | 76 W/m² | - |
| 1778059494 | 12.78° C | 76% | 1011.2 hPa | 0 mm | - | 76 W/m² | - |
| 1778058894 | 12.78° C | 76% | 1011.2 hPa | 0 mm | - | 72 W/m² | - |
| 1778058294 | 12.78° C | 75% | 1011.1 hPa | 0 mm | - | 74 W/m² | - |
| 1778057994 | 12.78° C | 75% | 1011 hPa | 0 mm | - | 70 W/m² | - |
| 1778054994 | 12.78° C | 76% | 1010.8 hPa | 0 mm | - | 98 W/m² | - |
| 1778054394 | 12.78° C | 77% | 1010.7 hPa | 0 mm | - | 84 W/m² | - |
| 1778046295 | 12.22° C | 79% | 1009.8 hPa | 0 mm | - | 12 W/m² | - |
| 1778045095 | 12.22° C | 79% | 1009.6 hPa | 0 mm | - | 7 W/m² | - |
| 1778044795 | 12.22° C | 79% | 1009.6 hPa | 0 mm | - | 7 W/m² | - |
| 1778044495 | 12.22° C | 79% | 1009.6 hPa | 0 mm | - | 5 W/m² | - |
| 1778044195 | 12.22° C | 79% | 1009.5 hPa | 0 mm | - | 0 W/m² | - |
| 1778043895 | 12.22° C | 79% | 1009.6 hPa | 0 mm | - | 0 W/m² | - |
| 1778043595 | 12.22° C | 79% | 1009.5 hPa | 0 mm | - | 0 W/m² | - |
| 1778043295 | 12.22° C | 79% | 1009.5 hPa | 0 mm | - | 0 W/m² | - |
| 1778042995 | 12.22° C | 79% | 1009.6 hPa | 0 mm | - | 0 W/m² | - |
| 1778042695 | 12.22° C | 79% | 1009.6 hPa | 0 mm | - | 0 W/m² | - |
* Rain latest hour (hover to see other rain measurements)
** Current wind speed in m/s (hover to see current wind gust speed)